sensor_id;sensor_type;location;lat;lon;timestamp;P1;durP1;ratioP1;P2;durP2;ratioP2
36575;SDS011;45700;50.930;5.168;2022-07-22T00:01:51;6.18;;;2.60;;
36575;SDS011;45700;50.930;5.168;2022-07-22T00:05:52;4.47;;;2.40;;
36575;SDS011;45700;50.930;5.168;2022-07-22T00:09:53;7.05;;;2.80;;
36575;SDS011;45700;50.930;5.168;2022-07-22T00:13:55;7.95;;;3.10;;
36575;SDS011;45700;50.930;5.168;2022-07-22T00:17:56;8.63;;;3.25;;
36575;SDS011;45700;50.930;5.168;2022-07-22T00:21:57;8.07;;;2.60;;
36575;SDS011;45700;50.930;5.168;2022-07-22T00:25:58;12.25;;;3.75;;
36575;SDS011;45700;50.930;5.168;2022-07-22T00:29:59;7.85;;;2.90;;
36575;SDS011;45700;50.930;5.168;2022-07-22T00:34:00;6.13;;;2.90;;
36575;SDS011;45700;50.930;5.168;2022-07-22T00:38:01;5.47;;;2.70;;
36575;SDS011;45700;50.930;5.168;2022-07-22T00:42:02;9.35;;;2.92;;
36575;SDS011;45700;50.930;5.168;2022-07-22T00:46:03;4.80;;;2.60;;
36575;SDS011;45700;50.930;5.168;2022-07-22T00:50:04;5.18;;;2.83;;
36575;SDS011;45700;50.930;5.168;2022-07-22T00:54:06;8.07;;;2.97;;
36575;SDS011;45700;50.930;5.168;2022-07-22T00:58:07;5.88;;;3.25;;
36575;SDS011;45700;50.930;5.168;2022-07-22T01:02:08;6.25;;;3.13;;
36575;SDS011;45700;50.930;5.168;2022-07-22T01:06:09;6.32;;;3.53;;
36575;SDS011;45700;50.930;5.168;2022-07-22T01:10:11;4.03;;;2.58;;
36575;SDS011;45700;50.930;5.168;2022-07-22T01:14:12;5.63;;;2.97;;
36575;SDS011;45700;50.930;5.168;2022-07-22T01:18:13;6.07;;;2.80;;
36575;SDS011;45700;50.930;5.168;2022-07-22T01:22:14;7.13;;;3.63;;
36575;SDS011;45700;50.930;5.168;2022-07-22T01:26:15;5.40;;;3.42;;
36575;SDS011;45700;50.930;5.168;2022-07-22T01:30:17;10.68;;;3.30;;
36575;SDS011;45700;50.930;5.168;2022-07-22T01:34:18;8.27;;;2.85;;
36575;SDS011;45700;50.930;5.168;2022-07-22T01:38:19;5.68;;;3.55;;
36575;SDS011;45700;50.930;5.168;2022-07-22T01:42:20;4.22;;;2.97;;
36575;SDS011;45700;50.930;5.168;2022-07-22T01:46:21;7.57;;;3.38;;
36575;SDS011;45700;50.930;5.168;2022-07-22T01:50:23;5.47;;;2.53;;
36575;SDS011;45700;50.930;5.168;2022-07-22T01:54:24;7.22;;;3.10;;
36575;SDS011;45700;50.930;5.168;2022-07-22T01:58:25;8.55;;;2.53;;
36575;SDS011;45700;50.930;5.168;2022-07-22T02:02:26;4.60;;;2.50;;
36575;SDS011;45700;50.930;5.168;2022-07-22T02:06:27;6.50;;;2.60;;
36575;SDS011;45700;50.930;5.168;2022-07-22T02:10:30;3.80;;;2.45;;
36575;SDS011;45700;50.930;5.168;2022-07-22T02:14:31;6.72;;;2.55;;
36575;SDS011;45700;50.930;5.168;2022-07-22T02:18:32;6.30;;;2.72;;
36575;SDS011;45700;50.930;5.168;2022-07-22T02:22:33;6.57;;;2.88;;
36575;SDS011;45700;50.930;5.168;2022-07-22T02:26:34;5.68;;;2.65;;
36575;SDS011;45700;50.930;5.168;2022-07-22T02:30:35;5.05;;;2.30;;
36575;SDS011;45700;50.930;5.168;2022-07-22T02:34:37;6.03;;;2.60;;
36575;SDS011;45700;50.930;5.168;2022-07-22T02:38:38;6.07;;;2.70;;
36575;SDS011;45700;50.930;5.168;2022-07-22T02:42:39;4.30;;;2.63;;
36575;SDS011;45700;50.930;5.168;2022-07-22T02:46:40;4.88;;;2.42;;
36575;SDS011;45700;50.930;5.168;2022-07-22T02:50:47;5.68;;;2.78;;
36575;SDS011;45700;50.930;5.168;2022-07-22T02:54:48;4.88;;;2.70;;
36575;SDS011;45700;50.930;5.168;2022-07-22T02:58:49;4.25;;;2.75;;
36575;SDS011;45700;50.930;5.168;2022-07-22T03:02:55;5.63;;;3.00;;
36575;SDS011;45700;50.930;5.168;2022-07-22T03:06:56;6.72;;;2.92;;
36575;SDS011;45700;50.930;5.168;2022-07-22T03:10:57;7.32;;;2.97;;
36575;SDS011;45700;50.930;5.168;2022-07-22T03:14:58;8.35;;;2.80;;
36575;SDS011;45700;50.930;5.168;2022-07-22T03:18:59;5.35;;;2.90;;
36575;SDS011;45700;50.930;5.168;2022-07-22T03:23:00;6.20;;;3.10;;
36575;SDS011;45700;50.930;5.168;2022-07-22T03:27:01;5.32;;;3.40;;
36575;SDS011;45700;50.930;5.168;2022-07-22T03:31:02;5.70;;;3.10;;
36575;SDS011;45700;50.930;5.168;2022-07-22T03:35:03;5.40;;;2.90;;
36575;SDS011;45700;50.930;5.168;2022-07-22T03:39:05;6.82;;;3.10;;
36575;SDS011;45700;50.930;5.168;2022-07-22T03:43:06;7.95;;;3.65;;
36575;SDS011;45700;50.930;5.168;2022-07-22T03:47:07;6.18;;;3.20;;
36575;SDS011;45700;50.930;5.168;2022-07-22T03:51:07;5.18;;;3.63;;
36575;SDS011;45700;50.930;5.168;2022-07-22T03:55:08;6.55;;;3.15;;
36575;SDS011;45700;50.930;5.168;2022-07-22T03:59:09;8.45;;;3.40;;
36575;SDS011;45700;50.930;5.168;2022-07-22T04:03:10;7.18;;;3.55;;
36575;SDS011;45700;50.930;5.168;2022-07-22T04:07:11;5.15;;;3.15;;
36575;SDS011;45700;50.930;5.168;2022-07-22T04:11:12;4.78;;;3.15;;
36575;SDS011;45700;50.930;5.168;2022-07-22T04:15:13;7.28;;;2.92;;
36575;SDS011;45700;50.930;5.168;2022-07-22T04:19:14;4.53;;;2.58;;
36575;SDS011;45700;50.930;5.168;2022-07-22T04:23:15;4.82;;;3.08;;
36575;SDS011;45700;50.930;5.168;2022-07-22T04:27:16;5.25;;;2.65;;
36575;SDS011;45700;50.930;5.168;2022-07-22T04:31:17;4.88;;;2.65;;
36575;SDS011;45700;50.930;5.168;2022-07-22T04:35:18;5.95;;;3.25;;
36575;SDS011;45700;50.930;5.168;2022-07-22T04:39:19;5.07;;;3.20;;
36575;SDS011;45700;50.930;5.168;2022-07-22T04:43:21;4.38;;;3.03;;
36575;SDS011;45700;50.930;5.168;2022-07-22T04:47:22;7.25;;;3.38;;
36575;SDS011;45700;50.930;5.168;2022-07-22T04:51:23;5.43;;;3.55;;
36575;SDS011;45700;50.930;5.168;2022-07-22T04:55:24;6.90;;;3.78;;
36575;SDS011;45700;50.930;5.168;2022-07-22T04:59:25;6.70;;;3.55;;
36575;SDS011;45700;50.930;5.168;2022-07-22T05:03:26;6.57;;;3.55;;
36575;SDS011;45700;50.930;5.168;2022-07-22T05:07:27;11.07;;;3.40;;
36575;SDS011;45700;50.930;5.168;2022-07-22T05:11:28;8.07;;;3.45;;
36575;SDS011;45700;50.930;5.168;2022-07-22T05:15:29;5.53;;;3.28;;
36575;SDS011;45700;50.930;5.168;2022-07-22T05:19:30;7.10;;;3.75;;
36575;SDS011;45700;50.930;5.168;2022-07-22T05:23:31;7.75;;;3.90;;
36575;SDS011;45700;50.930;5.168;2022-07-22T05:27:32;10.52;;;4.57;;
36575;SDS011;45700;50.930;5.168;2022-07-22T05:31:33;8.43;;;4.40;;
36575;SDS011;45700;50.930;5.168;2022-07-22T05:35:34;7.03;;;4.43;;
36575;SDS011;45700;50.930;5.168;2022-07-22T05:39:35;7.22;;;3.97;;
36575;SDS011;45700;50.930;5.168;2022-07-22T05:43:36;7.43;;;4.10;;
36575;SDS011;45700;50.930;5.168;2022-07-22T05:47:37;6.00;;;3.92;;
36575;SDS011;45700;50.930;5.168;2022-07-22T05:51:38;6.57;;;3.92;;
36575;SDS011;45700;50.930;5.168;2022-07-22T05:55:39;5.68;;;3.70;;
36575;SDS011;45700;50.930;5.168;2022-07-22T05:59:40;7.90;;;3.67;;
36575;SDS011;45700;50.930;5.168;2022-07-22T06:03:41;9.85;;;3.97;;
36575;SDS011;45700;50.930;5.168;2022-07-22T06:07:42;8.27;;;4.07;;
36575;SDS011;45700;50.930;5.168;2022-07-22T06:11:43;8.00;;;3.55;;
36575;SDS011;45700;50.930;5.168;2022-07-22T06:15:44;8.43;;;3.30;;
36575;SDS011;45700;50.930;5.168;2022-07-22T06:19:46;6.03;;;3.00;;
36575;SDS011;45700;50.930;5.168;2022-07-22T06:23:46;6.15;;;3.17;;
36575;SDS011;45700;50.930;5.168;2022-07-22T06:27:47;6.57;;;2.88;;
36575;SDS011;45700;50.930;5.168;2022-07-22T06:31:48;4.78;;;2.67;;
36575;SDS011;45700;50.930;5.168;2022-07-22T06:35:49;4.80;;;2.60;;
36575;SDS011;45700;50.930;5.168;2022-07-22T06:39:51;3.25;;;1.83;;
36575;SDS011;45700;50.930;5.168;2022-07-22T06:43:52;3.83;;;2.30;;
36575;SDS011;45700;50.930;5.168;2022-07-22T06:47:53;3.78;;;1.85;;
36575;SDS011;45700;50.930;5.168;2022-07-22T06:51:54;3.05;;;1.55;;
36575;SDS011;45700;50.930;5.168;2022-07-22T06:55:55;3.53;;;2.47;;
36575;SDS011;45700;50.930;5.168;2022-07-22T06:59:56;3.10;;;2.00;;
36575;SDS011;45700;50.930;5.168;2022-07-22T07:03:57;4.05;;;1.75;;
36575;SDS011;45700;50.930;5.168;2022-07-22T07:07:58;2.65;;;1.50;;
36575;SDS011;45700;50.930;5.168;2022-07-22T07:11:59;4.72;;;1.95;;
36575;SDS011;45700;50.930;5.168;2022-07-22T07:16:00;2.65;;;1.60;;
36575;SDS011;45700;50.930;5.168;2022-07-22T07:20:01;4.35;;;1.95;;
36575;SDS011;45700;50.930;5.168;2022-07-22T07:24:02;1.83;;;1.48;;
36575;SDS011;45700;50.930;5.168;2022-07-22T07:28:03;2.13;;;1.58;;
36575;SDS011;45700;50.930;5.168;2022-07-22T07:32:04;1.80;;;1.38;;
36575;SDS011;45700;50.930;5.168;2022-07-22T07:36:05;3.17;;;1.65;;
36575;SDS011;45700;50.930;5.168;2022-07-22T07:40:06;2.50;;;1.80;;
36575;SDS011;45700;50.930;5.168;2022-07-22T07:44:08;4.00;;;1.65;;
36575;SDS011;45700;50.930;5.168;2022-07-22T07:48:09;2.80;;;1.50;;
36575;SDS011;45700;50.930;5.168;2022-07-22T07:52:10;1.85;;;1.27;;
36575;SDS011;45700;50.930;5.168;2022-07-22T07:56:12;3.78;;;1.48;;
36575;SDS011;45700;50.930;5.168;2022-07-22T08:00:13;1.65;;;1.23;;
36575;SDS011;45700;50.930;5.168;2022-07-22T08:04:14;3.00;;;1.50;;
36575;SDS011;45700;50.930;5.168;2022-07-22T08:08:15;3.45;;;1.73;;
36575;SDS011;45700;50.930;5.168;2022-07-22T08:12:16;2.38;;;1.30;;
36575;SDS011;45700;50.930;5.168;2022-07-22T08:16:17;2.33;;;1.33;;
36575;SDS011;45700;50.930;5.168;2022-07-22T08:20:18;2.63;;;1.33;;
36575;SDS011;45700;50.930;5.168;2022-07-22T08:24:19;2.25;;;1.02;;
36575;SDS011;45700;50.930;5.168;2022-07-22T08:28:21;2.13;;;1.17;;
36575;SDS011;45700;50.930;5.168;2022-07-22T08:32:22;2.10;;;1.38;;
36575;SDS011;45700;50.930;5.168;2022-07-22T08:36:23;2.08;;;1.20;;
36575;SDS011;45700;50.930;5.168;2022-07-22T08:40:24;2.92;;;1.35;;
36575;SDS011;45700;50.930;5.168;2022-07-22T08:44:28;2.38;;;1.33;;
36575;SDS011;45700;50.930;5.168;2022-07-22T08:48:29;2.03;;;1.17;;
36575;SDS011;45700;50.930;5.168;2022-07-22T08:52:30;2.38;;;1.73;;
36575;SDS011;45700;50.930;5.168;2022-07-22T08:56:31;2.45;;;1.50;;
36575;SDS011;45700;50.930;5.168;2022-07-22T09:00:32;1.60;;;1.20;;
36575;SDS011;45700;50.930;5.168;2022-07-22T09:08:58;3.92;;;1.60;;
36575;SDS011;45700;50.930;5.168;2022-07-22T09:13:00;2.00;;;1.48;;
36575;SDS011;45700;50.930;5.168;2022-07-22T09:17:01;3.97;;;1.33;;
36575;SDS011;45700;50.930;5.168;2022-07-22T09:21:02;1.98;;;1.52;;
36575;SDS011;45700;50.930;5.168;2022-07-22T09:29:23;3.75;;;1.70;;
36575;SDS011;45700;50.930;5.168;2022-07-22T09:33:24;3.10;;;1.63;;
36575;SDS011;45700;50.930;5.168;2022-07-22T09:37:25;2.60;;;1.70;;
36575;SDS011;45700;50.930;5.168;2022-07-22T09:41:26;2.83;;;1.73;;
36575;SDS011;45700;50.930;5.168;2022-07-22T09:45:27;2.88;;;1.70;;
36575;SDS011;45700;50.930;5.168;2022-07-22T09:49:33;3.13;;;2.15;;
36575;SDS011;45700;50.930;5.168;2022-07-22T09:53:34;2.65;;;1.42;;
36575;SDS011;45700;50.930;5.168;2022-07-22T09:57:35;1.77;;;1.30;;
36575;SDS011;45700;50.930;5.168;2022-07-22T10:01:37;2.97;;;1.50;;
36575;SDS011;45700;50.930;5.168;2022-07-22T10:05:39;3.20;;;1.70;;
36575;SDS011;45700;50.930;5.168;2022-07-22T10:09:40;1.83;;;1.52;;
36575;SDS011;45700;50.930;5.168;2022-07-22T10:13:44;5.72;;;1.80;;
36575;SDS011;45700;50.930;5.168;2022-07-22T10:17:46;2.20;;;1.80;;
36575;SDS011;45700;50.930;5.168;2022-07-22T10:21:50;2.17;;;1.55;;
36575;SDS011;45700;50.930;5.168;2022-07-22T10:29:52;3.78;;;1.60;;
36575;SDS011;45700;50.930;5.168;2022-07-22T10:33:55;3.67;;;1.92;;
36575;SDS011;45700;50.930;5.168;2022-07-22T10:37:57;1.73;;;1.38;;
36575;SDS011;45700;50.930;5.168;2022-07-22T10:41:59;5.30;;;2.08;;
36575;SDS011;45700;50.930;5.168;2022-07-22T10:46:00;2.63;;;1.70;;
36575;SDS011;45700;50.930;5.168;2022-07-22T10:54:26;2.53;;;1.67;;
36575;SDS011;45700;50.930;5.168;2022-07-22T11:02:34;2.72;;;1.48;;
36575;SDS011;45700;50.930;5.168;2022-07-22T11:06:35;3.28;;;1.60;;
36575;SDS011;45700;50.930;5.168;2022-07-22T11:10:36;5.82;;;2.75;;
36575;SDS011;45700;50.930;5.168;2022-07-22T11:14:37;3.47;;;1.90;;
36575;SDS011;45700;50.930;5.168;2022-07-22T11:18:48;2.50;;;1.85;;
36575;SDS011;45700;50.930;5.168;2022-07-22T11:22:49;5.15;;;1.83;;
36575;SDS011;45700;50.930;5.168;2022-07-22T11:26:51;4.28;;;2.13;;
36575;SDS011;45700;50.930;5.168;2022-07-22T11:31:05;3.80;;;2.25;;
36575;SDS011;45700;50.930;5.168;2022-07-22T11:35:10;3.33;;;1.77;;
36575;SDS011;45700;50.930;5.168;2022-07-22T11:39:12;4.07;;;2.10;;
36575;SDS011;45700;50.930;5.168;2022-07-22T11:43:13;2.90;;;2.00;;
36575;SDS011;45700;50.930;5.168;2022-07-22T11:47:14;3.63;;;2.00;;
36575;SDS011;45700;50.930;5.168;2022-07-22T11:51:15;2.55;;;2.00;;
36575;SDS011;45700;50.930;5.168;2022-07-22T11:55:16;5.53;;;2.25;;
36575;SDS011;45700;50.930;5.168;2022-07-22T11:59:17;2.80;;;2.00;;
36575;SDS011;45700;50.930;5.168;2022-07-22T12:03:18;2.53;;;2.00;;
36575;SDS011;45700;50.930;5.168;2022-07-22T12:07:19;3.35;;;1.92;;
36575;SDS011;45700;50.930;5.168;2022-07-22T12:11:21;2.03;;;1.83;;
36575;SDS011;45700;50.930;5.168;2022-07-22T12:15:23;2.88;;;2.20;;
36575;SDS011;45700;50.930;5.168;2022-07-22T12:19:24;2.53;;;2.00;;
36575;SDS011;45700;50.930;5.168;2022-07-22T12:23:29;4.20;;;2.42;;
36575;SDS011;45700;50.930;5.168;2022-07-22T12:27:30;3.33;;;2.33;;
36575;SDS011;45700;50.930;5.168;2022-07-22T12:31:31;3.47;;;2.17;;
36575;SDS011;45700;50.930;5.168;2022-07-22T12:35:42;2.47;;;1.80;;
36575;SDS011;45700;50.930;5.168;2022-07-22T12:43:56;3.70;;;2.03;;
36575;SDS011;45700;50.930;5.168;2022-07-22T12:52:10;2.58;;;2.17;;
36575;SDS011;45700;50.930;5.168;2022-07-22T12:56:11;2.85;;;1.83;;
36575;SDS011;45700;50.930;5.168;2022-07-22T13:00:22;3.30;;;2.10;;
36575;SDS011;45700;50.930;5.168;2022-07-22T13:04:23;4.03;;;1.85;;
36575;SDS011;45700;50.930;5.168;2022-07-22T13:08:25;4.22;;;1.90;;
36575;SDS011;45700;50.930;5.168;2022-07-22T13:12:26;2.80;;;2.13;;
36575;SDS011;45700;50.930;5.168;2022-07-22T13:16:27;2.70;;;1.90;;
36575;SDS011;45700;50.930;5.168;2022-07-22T13:20:28;2.22;;;1.77;;
36575;SDS011;45700;50.930;5.168;2022-07-22T13:24:29;2.95;;;2.00;;
36575;SDS011;45700;50.930;5.168;2022-07-22T13:28:30;2.95;;;2.10;;
36575;SDS011;45700;50.930;5.168;2022-07-22T13:32:32;3.95;;;2.00;;
36575;SDS011;45700;50.930;5.168;2022-07-22T13:36:33;2.83;;;2.30;;
36575;SDS011;45700;50.930;5.168;2022-07-22T13:40:34;3.08;;;2.08;;
36575;SDS011;45700;50.930;5.168;2022-07-22T13:44:35;2.35;;;1.90;;
36575;SDS011;45700;50.930;5.168;2022-07-22T13:48:36;1.60;;;1.50;;
36575;SDS011;45700;50.930;5.168;2022-07-22T13:52:37;3.17;;;1.70;;
36575;SDS011;45700;50.930;5.168;2022-07-22T13:56:38;2.08;;;1.70;;
36575;SDS011;45700;50.930;5.168;2022-07-22T14:00:40;2.22;;;1.35;;
36575;SDS011;45700;50.930;5.168;2022-07-22T14:04:41;1.95;;;1.70;;
36575;SDS011;45700;50.930;5.168;2022-07-22T14:08:42;3.17;;;1.70;;
36575;SDS011;45700;50.930;5.168;2022-07-22T14:12:43;3.50;;;1.85;;
36575;SDS011;45700;50.930;5.168;2022-07-22T14:16:44;4.60;;;1.70;;
36575;SDS011;45700;50.930;5.168;2022-07-22T14:20:49;3.03;;;1.45;;
36575;SDS011;45700;50.930;5.168;2022-07-22T14:24:50;2.78;;;2.33;;
36575;SDS011;45700;50.930;5.168;2022-07-22T14:28:51;2.20;;;1.88;;
36575;SDS011;45700;50.930;5.168;2022-07-22T14:32:52;3.45;;;1.90;;
36575;SDS011;45700;50.930;5.168;2022-07-22T14:36:53;3.65;;;1.77;;
36575;SDS011;45700;50.930;5.168;2022-07-22T14:40:54;2.17;;;1.98;;
36575;SDS011;45700;50.930;5.168;2022-07-22T14:44:55;2.30;;;1.67;;
36575;SDS011;45700;50.930;5.168;2022-07-22T14:48:56;3.53;;;1.85;;
36575;SDS011;45700;50.930;5.168;2022-07-22T14:52:57;2.45;;;1.80;;
36575;SDS011;45700;50.930;5.168;2022-07-22T14:56:58;3.55;;;2.08;;
36575;SDS011;45700;50.930;5.168;2022-07-22T15:00:59;2.58;;;1.83;;
36575;SDS011;45700;50.930;5.168;2022-07-22T15:05:00;3.15;;;2.17;;
36575;SDS011;45700;50.930;5.168;2022-07-22T15:09:01;3.08;;;1.98;;
36575;SDS011;45700;50.930;5.168;2022-07-22T15:13:02;2.50;;;1.95;;
36575;SDS011;45700;50.930;5.168;2022-07-22T15:17:03;3.35;;;2.22;;
36575;SDS011;45700;50.930;5.168;2022-07-22T15:21:04;3.08;;;2.05;;
36575;SDS011;45700;50.930;5.168;2022-07-22T15:25:06;2.20;;;1.80;;
36575;SDS011;45700;50.930;5.168;2022-07-22T15:29:07;3.00;;;1.90;;
36575;SDS011;45700;50.930;5.168;2022-07-22T15:33:08;4.55;;;1.92;;
36575;SDS011;45700;50.930;5.168;2022-07-22T15:37:10;2.97;;;1.75;;
36575;SDS011;45700;50.930;5.168;2022-07-22T15:41:11;3.03;;;2.20;;
36575;SDS011;45700;50.930;5.168;2022-07-22T15:45:12;2.45;;;1.65;;
36575;SDS011;45700;50.930;5.168;2022-07-22T15:49:13;2.63;;;1.88;;
36575;SDS011;45700;50.930;5.168;2022-07-22T15:53:15;2.83;;;1.92;;
36575;SDS011;45700;50.930;5.168;2022-07-22T15:57:16;2.90;;;1.90;;
36575;SDS011;45700;50.930;5.168;2022-07-22T16:01:35;3.15;;;1.95;;
36575;SDS011;45700;50.930;5.168;2022-07-22T16:05:36;2.70;;;1.80;;
36575;SDS011;45700;50.930;5.168;2022-07-22T16:09:37;2.63;;;1.60;;
36575;SDS011;45700;50.930;5.168;2022-07-22T16:13:39;1.70;;;1.60;;
36575;SDS011;45700;50.930;5.168;2022-07-22T16:17:40;2.47;;;1.88;;
36575;SDS011;45700;50.930;5.168;2022-07-22T16:21:41;2.67;;;1.67;;
36575;SDS011;45700;50.930;5.168;2022-07-22T16:25:42;2.30;;;1.90;;
36575;SDS011;45700;50.930;5.168;2022-07-22T16:29:43;3.47;;;1.85;;
36575;SDS011;45700;50.930;5.168;2022-07-22T16:33:44;2.33;;;1.70;;
36575;SDS011;45700;50.930;5.168;2022-07-22T16:37:45;1.95;;;1.70;;
36575;SDS011;45700;50.930;5.168;2022-07-22T16:41:46;3.90;;;1.90;;
36575;SDS011;45700;50.930;5.168;2022-07-22T16:45:47;2.00;;;1.50;;
36575;SDS011;45700;50.930;5.168;2022-07-22T16:49:48;2.83;;;1.80;;
36575;SDS011;45700;50.930;5.168;2022-07-22T16:53:49;2.50;;;1.90;;
36575;SDS011;45700;50.930;5.168;2022-07-22T16:57:50;3.42;;;1.90;;
36575;SDS011;45700;50.930;5.168;2022-07-22T17:01:51;4.43;;;2.05;;
36575;SDS011;45700;50.930;5.168;2022-07-22T17:05:52;4.40;;;2.25;;
36575;SDS011;45700;50.930;5.168;2022-07-22T17:09:53;2.58;;;2.03;;
36575;SDS011;45700;50.930;5.168;2022-07-22T17:13:54;2.95;;;2.08;;
36575;SDS011;45700;50.930;5.168;2022-07-22T17:17:55;3.17;;;2.22;;
36575;SDS011;45700;50.930;5.168;2022-07-22T17:21:56;3.13;;;2.10;;
36575;SDS011;45700;50.930;5.168;2022-07-22T17:25:57;4.35;;;2.20;;
36575;SDS011;45700;50.930;5.168;2022-07-22T17:29:58;2.13;;;1.88;;
36575;SDS011;45700;50.930;5.168;2022-07-22T17:33:59;3.15;;;2.10;;
36575;SDS011;45700;50.930;5.168;2022-07-22T17:38:00;3.95;;;2.50;;
36575;SDS011;45700;50.930;5.168;2022-07-22T17:42:01;5.25;;;2.83;;
36575;SDS011;45700;50.930;5.168;2022-07-22T17:46:02;4.57;;;2.97;;
36575;SDS011;45700;50.930;5.168;2022-07-22T17:50:03;4.65;;;3.38;;
36575;SDS011;45700;50.930;5.168;2022-07-22T17:54:07;4.55;;;3.15;;
36575;SDS011;45700;50.930;5.168;2022-07-22T17:58:08;4.65;;;3.13;;
36575;SDS011;45700;50.930;5.168;2022-07-22T18:02:09;6.10;;;3.90;;
36575;SDS011;45700;50.930;5.168;2022-07-22T18:06:10;4.97;;;3.40;;
36575;SDS011;45700;50.930;5.168;2022-07-22T18:10:11;3.90;;;2.97;;
36575;SDS011;45700;50.930;5.168;2022-07-22T18:14:12;4.97;;;3.20;;
36575;SDS011;45700;50.930;5.168;2022-07-22T18:18:14;5.65;;;3.35;;
36575;SDS011;45700;50.930;5.168;2022-07-22T18:22:16;5.00;;;3.50;;
36575;SDS011;45700;50.930;5.168;2022-07-22T18:26:17;7.75;;;3.65;;
36575;SDS011;45700;50.930;5.168;2022-07-22T18:30:18;3.53;;;3.00;;
36575;SDS011;45700;50.930;5.168;2022-07-22T18:34:19;4.80;;;3.65;;
36575;SDS011;45700;50.930;5.168;2022-07-22T18:38:20;8.23;;;3.80;;
36575;SDS011;45700;50.930;5.168;2022-07-22T18:42:22;4.60;;;3.20;;
36575;SDS011;45700;50.930;5.168;2022-07-22T18:46:23;6.97;;;3.88;;
36575;SDS011;45700;50.930;5.168;2022-07-22T18:50:24;7.00;;;3.75;;
36575;SDS011;45700;50.930;5.168;2022-07-22T18:54:25;7.20;;;4.30;;
36575;SDS011;45700;50.930;5.168;2022-07-22T18:58:26;5.97;;;4.28;;
36575;SDS011;45700;50.930;5.168;2022-07-22T19:02:27;8.27;;;4.45;;
36575;SDS011;45700;50.930;5.168;2022-07-22T19:06:28;5.55;;;3.65;;
36575;SDS011;45700;50.930;5.168;2022-07-22T19:10:30;6.32;;;4.13;;
36575;SDS011;45700;50.930;5.168;2022-07-22T19:14:31;6.57;;;4.25;;
36575;SDS011;45700;50.930;5.168;2022-07-22T19:18:33;7.85;;;4.00;;
36575;SDS011;45700;50.930;5.168;2022-07-22T19:22:34;5.72;;;3.65;;
36575;SDS011;45700;50.930;5.168;2022-07-22T19:26:35;11.20;;;4.18;;
36575;SDS011;45700;50.930;5.168;2022-07-22T19:30:36;5.03;;;3.65;;
36575;SDS011;45700;50.930;5.168;2022-07-22T19:34:37;6.35;;;4.28;;
36575;SDS011;45700;50.930;5.168;2022-07-22T19:38:37;6.47;;;4.25;;
36575;SDS011;45700;50.930;5.168;2022-07-22T19:42:38;8.00;;;4.70;;
36575;SDS011;45700;50.930;5.168;2022-07-22T19:46:40;7.85;;;5.00;;
36575;SDS011;45700;50.930;5.168;2022-07-22T19:50:41;7.00;;;4.75;;
36575;SDS011;45700;50.930;5.168;2022-07-22T19:54:42;7.78;;;4.80;;
36575;SDS011;45700;50.930;5.168;2022-07-22T19:58:43;8.10;;;5.32;;
36575;SDS011;45700;50.930;5.168;2022-07-22T20:02:45;7.35;;;4.70;;
36575;SDS011;45700;50.930;5.168;2022-07-22T20:06:46;6.57;;;4.88;;
36575;SDS011;45700;50.930;5.168;2022-07-22T20:10:47;8.30;;;4.85;;
36575;SDS011;45700;50.930;5.168;2022-07-22T20:14:48;8.35;;;5.32;;
36575;SDS011;45700;50.930;5.168;2022-07-22T20:18:49;8.02;;;5.30;;
36575;SDS011;45700;50.930;5.168;2022-07-22T20:22:50;8.75;;;5.90;;
36575;SDS011;45700;50.930;5.168;2022-07-22T20:26:51;9.48;;;5.28;;
36575;SDS011;45700;50.930;5.168;2022-07-22T20:30:52;8.57;;;5.03;;
36575;SDS011;45700;50.930;5.168;2022-07-22T20:34:53;9.77;;;6.13;;
36575;SDS011;45700;50.930;5.168;2022-07-22T20:38:54;10.68;;;6.13;;
36575;SDS011;45700;50.930;5.168;2022-07-22T20:42:55;8.70;;;5.32;;
36575;SDS011;45700;50.930;5.168;2022-07-22T20:46:56;8.90;;;5.45;;
36575;SDS011;45700;50.930;5.168;2022-07-22T20:50:57;8.55;;;5.43;;
36575;SDS011;45700;50.930;5.168;2022-07-22T20:54:58;8.85;;;5.28;;
36575;SDS011;45700;50.930;5.168;2022-07-22T20:58:59;10.20;;;5.95;;
36575;SDS011;45700;50.930;5.168;2022-07-22T21:03:00;11.02;;;6.03;;
36575;SDS011;45700;50.930;5.168;2022-07-22T21:07:01;8.75;;;5.43;;
36575;SDS011;45700;50.930;5.168;2022-07-22T21:11:02;11.88;;;5.32;;
36575;SDS011;45700;50.930;5.168;2022-07-22T21:15:03;9.63;;;4.95;;
36575;SDS011;45700;50.930;5.168;2022-07-22T21:19:04;9.35;;;5.43;;
36575;SDS011;45700;50.930;5.168;2022-07-22T21:23:08;9.18;;;4.55;;
36575;SDS011;45700;50.930;5.168;2022-07-22T21:27:09;9.35;;;5.30;;
36575;SDS011;45700;50.930;5.168;2022-07-22T21:31:10;7.72;;;4.68;;
36575;SDS011;45700;50.930;5.168;2022-07-22T21:35:11;8.95;;;4.85;;
36575;SDS011;45700;50.930;5.168;2022-07-22T21:39:12;9.75;;;4.90;;
36575;SDS011;45700;50.930;5.168;2022-07-22T21:43:13;7.68;;;5.30;;
36575;SDS011;45700;50.930;5.168;2022-07-22T21:47:14;8.55;;;4.88;;
36575;SDS011;45700;50.930;5.168;2022-07-22T21:51:15;7.95;;;5.00;;
36575;SDS011;45700;50.930;5.168;2022-07-22T21:55:16;8.93;;;4.95;;
36575;SDS011;45700;50.930;5.168;2022-07-22T21:59:17;8.77;;;5.07;;
36575;SDS011;45700;50.930;5.168;2022-07-22T22:03:18;9.43;;;4.85;;
36575;SDS011;45700;50.930;5.168;2022-07-22T22:07:19;11.02;;;4.82;;
36575;SDS011;45700;50.930;5.168;2022-07-22T22:11:20;9.05;;;4.70;;
36575;SDS011;45700;50.930;5.168;2022-07-22T22:15:21;8.52;;;4.70;;
36575;SDS011;45700;50.930;5.168;2022-07-22T22:19:22;9.25;;;4.90;;
36575;SDS011;45700;50.930;5.168;2022-07-22T22:23:23;10.13;;;5.30;;
36575;SDS011;45700;50.930;5.168;2022-07-22T22:27:24;8.65;;;4.93;;
36575;SDS011;45700;50.930;5.168;2022-07-22T22:31:25;10.13;;;4.93;;
36575;SDS011;45700;50.930;5.168;2022-07-22T22:35:26;7.45;;;4.25;;
36575;SDS011;45700;50.930;5.168;2022-07-22T22:39:27;7.20;;;4.55;;
36575;SDS011;45700;50.930;5.168;2022-07-22T22:43:29;7.90;;;4.82;;
36575;SDS011;45700;50.930;5.168;2022-07-22T22:47:31;11.20;;;4.70;;
36575;SDS011;45700;50.930;5.168;2022-07-22T22:51:32;7.50;;;5.07;;
36575;SDS011;45700;50.930;5.168;2022-07-22T22:55:33;8.23;;;4.43;;
36575;SDS011;45700;50.930;5.168;2022-07-22T22:59:34;8.02;;;4.63;;
36575;SDS011;45700;50.930;5.168;2022-07-22T23:03:35;9.13;;;4.63;;
36575;SDS011;45700;50.930;5.168;2022-07-22T23:07:37;8.27;;;4.63;;
36575;SDS011;45700;50.930;5.168;2022-07-22T23:11:38;10.70;;;4.80;;
36575;SDS011;45700;50.930;5.168;2022-07-22T23:15:39;7.40;;;4.43;;
36575;SDS011;45700;50.930;5.168;2022-07-22T23:19:40;9.32;;;4.45;;
36575;SDS011;45700;50.930;5.168;2022-07-22T23:23:42;10.10;;;4.95;;
36575;SDS011;45700;50.930;5.168;2022-07-22T23:27:43;9.30;;;5.85;;
36575;SDS011;45700;50.930;5.168;2022-07-22T23:31:47;5.80;;;4.07;;
36575;SDS011;45700;50.930;5.168;2022-07-22T23:35:48;7.72;;;4.43;;
36575;SDS011;45700;50.930;5.168;2022-07-22T23:39:49;9.77;;;5.20;;
36575;SDS011;45700;50.930;5.168;2022-07-22T23:43:50;9.30;;;5.10;;
36575;SDS011;45700;50.930;5.168;2022-07-22T23:47:51;9.55;;;4.80;;
36575;SDS011;45700;50.930;5.168;2022-07-22T23:51:52;8.55;;;5.20;;
36575;SDS011;45700;50.930;5.168;2022-07-22T23:55:53;6.68;;;4.45;;
36575;SDS011;45700;50.930;5.168;2022-07-22T23:59:54;9.32;;;4.68;;
